IS-0001 weather

Suðureyri Airstrip
Suðureyri, Westfjords, Iceland

Public forecast

Using degrees Celsius for public forecast. Weather courtesy of forecast.io.

Closest aviation weather report (METAR) to Suðureyri Airstrip

Report is more than 6 hours old.

Closest report is Ísafjörður Airport, 10.9 nm (20.2 km) ESE. Retrieved 2019/12/10 14:00 UTC (10 hours ago):

BIIS 101400Z 02026G45KT 0500 SN VV005 M02/M02 Q0977

Closest aviation forecast (TAF) to Suðureyri Airstrip

Closest forecast is Akureyri Airport, 137.1 nm (253.9 km) E. Retrieved 2019/12/10 21:52 UTC (2 hours ago):

TAF BIAR 101949Z 1021/1121 36025G40KT 3000 SN SCT008 BKN015 OVC022 TX00/1021Z TNM02/1118Z TEMPO 1021/1118 0500 BLSN VV002 BECMG 1021/1023 35045G62KT BECMG 1108/1110 35035G52KT BECMG 1112/1114 35025G42KT 7000 BECMG 1114/1116 35022KT